createdAt,value
2022-08-26T00:00:37.304Z,17.6
2022-08-26T00:01:37.408Z,17.92
2022-08-26T00:02:37.567Z,18.08
2022-08-26T00:03:37.682Z,17.92
2022-08-26T00:04:37.712Z,17.76
2022-08-26T00:05:37.820Z,17.6
2022-08-26T00:06:37.925Z,17.52
2022-08-26T00:07:38.020Z,17.44
2022-08-26T00:08:38.169Z,17.44
2022-08-26T00:09:39.124Z,17.44
2022-08-26T00:10:38.425Z,17.52
2022-08-26T00:11:38.531Z,17.52
2022-08-26T00:12:38.633Z,17.52
2022-08-26T00:13:38.735Z,17.44
2022-08-26T00:14:38.887Z,17.52
2022-08-26T00:15:39.045Z,17.52
2022-08-26T00:16:40.722Z,17.28
2022-08-26T00:17:40.296Z,17.2
2022-08-26T00:18:40.821Z,17.28
2022-08-26T00:19:39.501Z,17.44
2022-08-26T00:20:39.598Z,17.28
2022-08-26T00:21:39.699Z,17.44
2022-08-26T00:22:39.799Z,17.44
2022-08-26T00:23:39.954Z,17.44
2022-08-26T00:24:40.054Z,17.52
2022-08-26T00:25:42.450Z,17.44
2022-08-26T00:26:41.451Z,17.2
2022-08-26T00:27:40.458Z,17.28
2022-08-26T00:28:40.590Z,16.88
2022-08-26T00:29:40.722Z,17.04
2022-08-26T00:30:40.818Z,17.2
2022-08-26T00:31:41.019Z,17.2
2022-08-26T00:32:41.119Z,17.28
2022-08-26T00:33:41.272Z,17.2
2022-08-26T00:34:41.426Z,16.88
2022-08-26T00:35:43.825Z,16.88
2022-08-26T00:36:41.678Z,16.88
2022-08-26T00:37:41.829Z,17.04
2022-08-26T00:38:41.935Z,17.04
2022-08-26T00:39:42.085Z,17.04
2022-08-26T00:40:42.190Z,17.04
2022-08-26T00:41:42.287Z,16.72
2022-08-26T00:42:45.861Z,16.64
2022-08-26T00:43:46.415Z,16.72
2022-08-26T00:44:42.748Z,16.48
2022-08-26T00:45:42.917Z,16.48
2022-08-26T00:46:44.957Z,16.64
2022-08-26T00:47:43.145Z,16.48
2022-08-26T00:48:43.250Z,16.72
2022-08-26T00:49:43.359Z,16.64
2022-08-26T00:50:43.527Z,16.64
2022-08-26T00:51:43.655Z,16.8
2022-08-26T00:52:44.046Z,16.8
2022-08-26T00:53:43.915Z,17.04
2022-08-26T00:54:44.015Z,17.04
2022-08-26T00:55:44.123Z,17.04
2022-08-26T00:56:44.277Z,17.04
2022-08-26T00:57:44.414Z,16.8
2022-08-26T00:58:44.472Z,16.88
2022-08-26T00:59:44.570Z,16.88
2022-08-26T01:00:45.188Z,16.88
2022-08-26T01:01:45.877Z,16.88
2022-08-26T01:02:46.758Z,16.8
2022-08-26T01:03:45.054Z,16.88
2022-08-26T01:04:45.147Z,16.88
2022-08-26T01:05:45.233Z,16.88
2022-08-26T01:06:45.385Z,16.88
2022-08-26T01:07:45.489Z,17.04
2022-08-26T01:08:45.587Z,16.88
2022-08-26T01:09:45.739Z,17.04
2022-08-26T01:10:45.842Z,17.04
2022-08-26T01:11:45.945Z,16.88
2022-08-26T01:12:46.096Z,16.72
2022-08-26T01:13:46.199Z,16.48
2022-08-26T01:14:46.495Z,16.24
2022-08-26T01:15:46.508Z,16.32
2022-08-26T01:16:46.659Z,16.08
2022-08-26T01:17:46.808Z,16.32
2022-08-26T01:18:46.908Z,16.24
2022-08-26T01:19:47.068Z,16.24
2022-08-26T01:20:47.164Z,16.32
2022-08-26T01:21:47.262Z,16.64
2022-08-26T01:22:47.415Z,16.4
2022-08-26T01:23:47.518Z,16.64
2022-08-26T01:24:47.619Z,16.72
2022-08-26T01:25:47.773Z,16.72
2022-08-26T01:26:47.879Z,16.72
2022-08-26T01:27:48.996Z,16.72
2022-08-26T01:28:50.579Z,16.72
2022-08-26T01:29:48.278Z,16.72
2022-08-26T01:30:48.382Z,16.72
2022-08-26T01:31:48.521Z,16.72
2022-08-26T01:32:48.638Z,16.8
2022-08-26T01:33:48.790Z,16.72
2022-08-26T01:34:48.943Z,16.72
2022-08-26T01:35:49.065Z,16.64
2022-08-26T01:36:51.449Z,16.72
2022-08-26T01:37:49.350Z,16.88
2022-08-26T01:38:49.497Z,16.88
2022-08-26T01:39:49.648Z,17.2
2022-08-26T01:40:49.702Z,17.28
2022-08-26T01:41:51.801Z,17.2
2022-08-26T01:42:49.958Z,17.28
2022-08-26T01:43:50.053Z,17.2
2022-08-26T01:44:50.155Z,17.2
2022-08-26T01:45:50.304Z,17.2
2022-08-26T01:46:50.632Z,17.12
2022-08-26T01:47:56.955Z,16.88
2022-08-26T01:48:52.425Z,16.8
2022-08-26T01:49:50.785Z,16.8
2022-08-26T01:50:50.869Z,16.4
2022-08-26T01:51:51.022Z,16.48
2022-08-26T01:52:51.692Z,16.48
2022-08-26T01:53:51.330Z,16.48
2022-08-26T01:54:51.428Z,16.48
2022-08-26T01:55:51.528Z,16.48
2022-08-26T01:56:51.684Z,16.48
2022-08-26T01:57:51.840Z,16.72
2022-08-26T01:58:51.989Z,16.64
2022-08-26T01:59:52.089Z,16.48
2022-08-26T02:00:52.231Z,16.4
2022-08-26T02:01:52.726Z,16.48
2022-08-26T02:02:52.441Z,16.4
2022-08-26T02:03:52.553Z,16.4
2022-08-26T02:04:52.722Z,16.32
2022-08-26T02:05:52.826Z,16.48
2022-08-26T02:06:52.950Z,16.4
2022-08-26T02:07:53.147Z,16.64
2022-08-26T02:08:53.154Z,16.8
2022-08-26T02:09:53.310Z,16.64
2022-08-26T02:10:54.080Z,16.64
2022-08-26T02:11:53.563Z,16.8
2022-08-26T02:12:53.663Z,16.8
2022-08-26T02:13:53.770Z,16.8
2022-08-26T02:14:53.917Z,16.8
2022-08-26T02:15:54.097Z,16.8
2022-08-26T02:16:54.249Z,16.8
2022-08-26T02:17:54.377Z,16.88
2022-08-26T02:18:54.521Z,16.8
2022-08-26T02:19:54.628Z,16.8
2022-08-26T02:20:54.727Z,16.88
2022-08-26T02:21:54.884Z,16.88
2022-08-26T02:22:54.982Z,16.88
2022-08-26T02:23:56.026Z,16.8
2022-08-26T02:24:55.236Z,16.8
2022-08-26T02:25:55.338Z,16.64
2022-08-26T02:26:55.486Z,16.4
2022-08-26T02:27:55.589Z,16.24
2022-08-26T02:28:55.740Z,16.24
2022-08-26T02:29:55.894Z,16.08
2022-08-26T02:30:56.048Z,16.08
2022-08-26T02:31:56.208Z,16.08
2022-08-26T02:32:56.372Z,16.4
2022-08-26T02:33:56.501Z,16.64
2022-08-26T02:34:56.659Z,16.64
2022-08-26T02:35:56.763Z,16.48
2022-08-26T02:36:56.863Z,16.48
2022-08-26T02:37:57.008Z,16.4
2022-08-26T02:38:57.112Z,16.64
2022-08-26T02:39:57.250Z,16.64
2022-08-26T02:40:57.329Z,16.64
2022-08-26T02:41:57.466Z,16.64
2022-08-26T02:42:57.621Z,16.64
2022-08-26T02:43:57.798Z,16.64
2022-08-26T02:44:57.878Z,16.64
2022-08-26T02:45:57.977Z,16.8
2022-08-26T02:46:58.086Z,16.64
2022-08-26T02:47:58.189Z,16.72
2022-08-26T02:48:58.305Z,16.64
2022-08-26T02:49:58.384Z,16.48
2022-08-26T02:50:58.542Z,16.32
2022-08-26T02:51:58.642Z,16.48
2022-08-26T02:52:58.741Z,16.24
2022-08-26T02:53:58.896Z,16.32
2022-08-26T02:54:58.993Z,16.24
2022-08-26T02:55:59.147Z,16.4
2022-08-26T02:56:59.302Z,16.32
2022-08-26T02:57:59.398Z,16.4
2022-08-26T02:58:59.577Z,16.32
2022-08-26T02:59:59.651Z,16.32
2022-08-26T03:00:59.772Z,16.32
2022-08-26T03:01:59.953Z,16.48
2022-08-26T03:03:00.101Z,16.4
2022-08-26T03:04:00.209Z,16.48
2022-08-26T03:05:02.098Z,16.48
2022-08-26T03:06:00.413Z,16.64
2022-08-26T03:07:00.569Z,16.64
2022-08-26T03:08:00.669Z,16.64
2022-08-26T03:09:00.807Z,16.4
2022-08-26T03:10:00.873Z,16.48
2022-08-26T03:11:01.506Z,16.4
2022-08-26T03:12:01.143Z,16.64
2022-08-26T03:13:01.244Z,16.64
2022-08-26T03:14:01.712Z,16.48
2022-08-26T03:15:01.495Z,16.64
2022-08-26T03:16:01.687Z,16.64
2022-08-26T03:17:01.791Z,16.48
2022-08-26T03:18:01.887Z,16.08
2022-08-26T03:19:01.989Z,16.32
2022-08-26T03:20:02.138Z,16.4
2022-08-26T03:21:02.319Z,16.32
2022-08-26T03:22:02.410Z,16
2022-08-26T03:23:02.496Z,16.4
2022-08-26T03:24:02.650Z,16.32
2022-08-26T03:25:02.758Z,16.24
2022-08-26T03:26:02.852Z,16.32
2022-08-26T03:27:05.808Z,16.64
2022-08-26T03:28:03.056Z,16.64
2022-08-26T03:29:03.184Z,16.64
2022-08-26T03:30:03.262Z,16.48
2022-08-26T03:31:03.386Z,16.24
2022-08-26T03:32:03.520Z,16.4
2022-08-26T03:33:03.668Z,16.4
2022-08-26T03:34:03.823Z,16.4
2022-08-26T03:35:03.972Z,16.64
2022-08-26T03:36:04.073Z,16.48
2022-08-26T03:37:04.227Z,16.8
2022-08-26T03:38:04.333Z,16.8
2022-08-26T03:39:04.476Z,16.8
2022-08-26T03:40:04.650Z,16.8
2022-08-26T03:41:04.735Z,16.8
2022-08-26T03:42:04.889Z,16.8
2022-08-26T03:43:05.053Z,16.8
2022-08-26T03:44:05.087Z,16.72
2022-08-26T03:45:05.190Z,16.72
2022-08-26T03:46:05.326Z,16.72
2022-08-26T03:47:05.396Z,16.72
2022-08-26T03:48:05.502Z,16.48
2022-08-26T03:49:05.654Z,16.64
2022-08-26T03:50:05.750Z,16.48
2022-08-26T03:51:05.854Z,16.48
2022-08-26T03:52:05.953Z,16.72
2022-08-26T03:53:07.336Z,16.8
2022-08-26T03:54:06.261Z,16.72
2022-08-26T03:55:06.359Z,16.72
2022-08-26T03:56:06.517Z,16.72
2022-08-26T03:57:06.666Z,16.64
2022-08-26T03:58:06.768Z,16.64
2022-08-26T03:59:07.475Z,16.72
2022-08-26T04:00:07.021Z,16.8
2022-08-26T04:01:07.171Z,16.88
2022-08-26T04:02:08.558Z,17.04
2022-08-26T04:03:09.840Z,17.04
2022-08-26T04:04:07.530Z,17.04
2022-08-26T04:05:07.630Z,17.04
2022-08-26T04:06:07.731Z,16.88
2022-08-26T04:07:07.886Z,16.8
2022-08-26T04:08:07.984Z,16.88
2022-08-26T04:09:08.092Z,16.72
2022-08-26T04:10:08.243Z,16.64
2022-08-26T04:11:08.340Z,16.64
2022-08-26T04:12:08.495Z,16.64
2022-08-26T04:13:08.698Z,16.72
2022-08-26T04:14:08.765Z,16.64
2022-08-26T04:15:08.848Z,16.8
2022-08-26T04:16:08.961Z,16.72
2022-08-26T04:17:09.053Z,16.72
2022-08-26T04:18:09.209Z,16.72
2022-08-26T04:19:09.306Z,16.72
2022-08-26T04:20:09.407Z,16.72
2022-08-26T04:21:09.564Z,16.72
2022-08-26T04:22:09.682Z,16.72
2022-08-26T04:23:09.813Z,16.72
2022-08-26T04:24:11.809Z,16.64
2022-08-26T04:25:10.016Z,16.64
2022-08-26T04:26:10.123Z,16.64
2022-08-26T04:27:10.226Z,16.64
2022-08-26T04:28:10.323Z,16.64
2022-08-26T04:29:10.430Z,16.48
2022-08-26T04:30:10.579Z,16.48
2022-08-26T04:31:10.721Z,16.64
2022-08-26T04:32:10.840Z,16.72
2022-08-26T04:33:12.823Z,16.72
2022-08-26T04:34:11.205Z,16.64
2022-08-26T04:35:11.198Z,16.64
2022-08-26T04:36:11.295Z,16.8
2022-08-26T04:37:11.399Z,16.8
2022-08-26T04:38:11.496Z,16.8
2022-08-26T04:39:11.656Z,16.88
2022-08-26T04:40:11.831Z,16.88
2022-08-26T04:41:15.194Z,16.88
2022-08-26T04:42:12.099Z,16.88
2022-08-26T04:43:12.253Z,16.88
2022-08-26T04:44:12.402Z,17.04
2022-08-26T04:45:12.560Z,16.88
2022-08-26T04:46:12.885Z,16.88
2022-08-26T04:47:12.815Z,16.88
2022-08-26T04:48:12.963Z,17.04
2022-08-26T04:49:13.131Z,17.12
2022-08-26T04:50:13.216Z,17.04
2022-08-26T04:51:13.371Z,17.04
2022-08-26T04:52:13.521Z,17.12
2022-08-26T04:53:13.623Z,17.2
2022-08-26T04:54:13.727Z,17.2
2022-08-26T04:55:13.827Z,17.52
2022-08-26T04:56:13.931Z,17.44
2022-08-26T04:57:14.043Z,17.6
2022-08-26T04:58:14.133Z,17.6
2022-08-26T04:59:16.567Z,17.6
2022-08-26T05:00:14.386Z,17.68
2022-08-26T05:01:14.547Z,17.76
2022-08-26T05:02:14.643Z,17.92
2022-08-26T05:03:14.790Z,17.92
2022-08-26T05:04:16.175Z,18
2022-08-26T05:05:14.997Z,18.08
2022-08-26T05:06:15.149Z,18.24
2022-08-26T05:07:15.247Z,18.4
2022-08-26T05:08:15.401Z,18.32
2022-08-26T05:09:15.547Z,18.32
2022-08-26T05:10:15.659Z,18.4
2022-08-26T05:11:15.759Z,18.4
2022-08-26T05:12:15.856Z,18.64
2022-08-26T05:13:15.987Z,18.72
2022-08-26T05:14:16.112Z,18.72
2022-08-26T05:15:16.270Z,18.8
2022-08-26T05:16:16.445Z,18.88
2022-08-26T05:17:16.523Z,18.88
2022-08-26T05:18:16.671Z,18.88
2022-08-26T05:19:17.277Z,19.04
2022-08-26T05:20:16.923Z,19.12
2022-08-26T05:21:17.030Z,19.28
2022-08-26T05:22:17.134Z,19.44
2022-08-26T05:23:17.227Z,19.68
2022-08-26T05:24:17.380Z,19.76
2022-08-26T05:25:17.483Z,20
2022-08-26T05:26:17.637Z,20.4
2022-08-26T05:27:17.778Z,20.4
2022-08-26T05:28:17.895Z,20.4
2022-08-26T05:29:17.993Z,20.4
2022-08-26T05:30:18.103Z,20.64
2022-08-26T05:31:18.201Z,20.64
2022-08-26T05:32:18.303Z,20.8
2022-08-26T05:33:18.403Z,21.04
2022-08-26T05:34:18.552Z,20.88
2022-08-26T05:35:18.661Z,20.88
2022-08-26T05:36:18.775Z,21.12
2022-08-26T05:37:18.859Z,21.04
2022-08-26T05:38:19.015Z,21.12
2022-08-26T05:39:19.161Z,21.44
2022-08-26T05:40:19.393Z,21.52
2022-08-26T05:41:19.466Z,21.84
2022-08-26T05:42:19.567Z,22.24
2022-08-26T05:43:20.026Z,22.24
2022-08-26T05:44:19.774Z,22
2022-08-26T05:45:19.870Z,22.24
2022-08-26T05:46:20.016Z,22.4
2022-08-26T05:47:20.079Z,22.72
2022-08-26T05:48:22.590Z,22.72
2022-08-26T05:49:20.372Z,22.8
2022-08-26T05:50:20.482Z,23.04
2022-08-26T05:51:24.019Z,23.04
2022-08-26T05:52:20.736Z,23.28
2022-08-26T05:53:20.838Z,23.28
2022-08-26T05:54:21.402Z,23.28
2022-08-26T05:55:21.102Z,23.84
2022-08-26T05:56:21.204Z,24.08
2022-08-26T05:57:22.684Z,23.84
2022-08-26T05:58:21.397Z,23.6
2022-08-26T05:59:24.418Z,23.84
2022-08-26T06:00:21.606Z,24.08
2022-08-26T06:01:21.780Z,24
2022-08-26T06:02:21.901Z,23.92
2022-08-26T06:03:21.959Z,24.4
2022-08-26T06:04:22.061Z,24.24
2022-08-26T06:05:22.215Z,24
2022-08-26T06:06:27.219Z,24.32
2022-08-26T06:07:22.421Z,24.24
2022-08-26T06:08:22.535Z,24.4
2022-08-26T06:09:22.620Z,24.8
2022-08-26T06:10:31.918Z,24.88
2022-08-26T06:11:22.872Z,24.72
2022-08-26T06:12:22.978Z,24.72
2022-08-26T06:13:23.124Z,25.2
2022-08-26T06:14:23.235Z,24.72
2022-08-26T06:15:23.358Z,24.8
2022-08-26T06:16:23.552Z,25.52
2022-08-26T06:17:23.540Z,25.52
2022-08-26T06:18:23.689Z,25.6
2022-08-26T06:19:23.802Z,25.68
2022-08-26T06:20:23.950Z,25.84
2022-08-26T06:21:24.102Z,25.92
2022-08-26T06:22:24.193Z,25.6
2022-08-26T06:23:24.295Z,25.28
2022-08-26T06:24:27.098Z,25.28
2022-08-26T06:25:24.551Z,25.52
2022-08-26T06:26:24.648Z,24.72
2022-08-26T06:27:26.530Z,24.8
2022-08-26T06:28:24.852Z,24.48
2022-08-26T06:29:25.005Z,24.8
2022-08-26T06:30:25.207Z,25.04
2022-08-26T06:31:25.339Z,25.12
2022-08-26T06:32:25.368Z,25.6
2022-08-26T06:33:25.471Z,25.2
2022-08-26T06:34:26.716Z,25.28
2022-08-26T06:35:25.675Z,25.44
2022-08-26T06:36:25.819Z,25.6
2022-08-26T06:37:25.950Z,26.4
2022-08-26T06:38:26.082Z,26.64
2022-08-26T06:39:26.179Z,26.64
2022-08-26T06:40:26.465Z,25.6
2022-08-26T06:41:26.483Z,25.52
2022-08-26T06:42:26.585Z,25.52
2022-08-26T06:43:26.692Z,25.6
2022-08-26T06:44:26.847Z,26.24
2022-08-26T06:45:26.943Z,25.84
2022-08-26T06:46:27.085Z,26
2022-08-26T06:47:27.151Z,26.4
2022-08-26T06:48:27.244Z,26.24
2022-08-26T06:49:27.765Z,26.4
2022-08-26T06:50:27.499Z,26.64
2022-08-26T06:51:27.602Z,27.2
2022-08-26T06:52:27.702Z,27.04
2022-08-26T06:53:27.801Z,27.44
2022-08-26T06:54:27.945Z,27.44
2022-08-26T06:55:28.060Z,27.2
2022-08-26T06:56:28.165Z,26.88
2022-08-26T06:57:28.271Z,25.6
2022-08-26T06:58:28.415Z,26
2022-08-26T06:59:28.567Z,26.32
2022-08-26T07:00:28.723Z,26.08
2022-08-26T07:01:28.924Z,25.92
2022-08-26T07:02:29.007Z,26.64
2022-08-26T07:03:29.133Z,27.28
2022-08-26T07:04:29.225Z,27.68
2022-08-26T07:05:29.330Z,27.44
2022-08-26T07:06:29.428Z,29.04
2022-08-26T07:07:29.582Z,29.28
2022-08-26T07:08:29.686Z,28.88
2022-08-26T07:09:29.834Z,30.08
2022-08-26T07:10:29.942Z,30
2022-08-26T07:11:30.089Z,29.12
2022-08-26T07:12:30.191Z,29.92
2022-08-26T07:13:30.998Z,29.2
2022-08-26T07:14:30.448Z,28.72
2022-08-26T07:15:31.141Z,29.44
2022-08-26T07:16:30.698Z,29.92
2022-08-26T07:17:30.804Z,30.32
2022-08-26T07:18:30.957Z,29.44
2022-08-26T07:19:31.702Z,28.88
2022-08-26T07:20:31.212Z,29.68
2022-08-26T07:21:31.321Z,29.2
2022-08-26T07:22:31.466Z,28.88
2022-08-26T07:23:31.566Z,29.28
2022-08-26T07:24:31.668Z,29.28
2022-08-26T07:25:31.771Z,29.6
2022-08-26T07:26:31.879Z,29.28
2022-08-26T07:27:31.978Z,29.92
2022-08-26T07:28:32.130Z,29.04
2022-08-26T07:29:32.238Z,29.84
2022-08-26T07:30:32.331Z,30.64
2022-08-26T07:31:36.069Z,31.84
2022-08-26T07:32:32.579Z,30.88
2022-08-26T07:33:32.687Z,31.6
2022-08-26T07:34:33.135Z,31.2
2022-08-26T07:35:32.937Z,29.92
2022-08-26T07:36:33.036Z,31.2
2022-08-26T07:37:35.582Z,31.12
2022-08-26T07:38:33.868Z,30.64
2022-08-26T07:39:33.446Z,29.84
2022-08-26T07:40:33.657Z,30.24
2022-08-26T07:41:33.706Z,31.92
2022-08-26T07:42:33.855Z,32.56
2022-08-26T07:43:33.959Z,31.68
2022-08-26T07:44:34.058Z,31.04
2022-08-26T07:45:34.160Z,31.6
2022-08-26T07:46:34.306Z,31.68
2022-08-26T07:47:34.458Z,31.04
2022-08-26T07:48:34.559Z,30.24
2022-08-26T07:49:34.737Z,30.72
2022-08-26T07:50:49.040Z,30.8
2022-08-26T07:51:34.920Z,30.32
2022-08-26T07:52:35.022Z,30.4
2022-08-26T07:53:35.127Z,31.12
2022-08-26T07:54:35.341Z,32.4
2022-08-26T07:55:35.436Z,32.48
2022-08-26T07:56:35.578Z,32.88
2022-08-26T07:57:35.678Z,32.72
2022-08-26T07:58:35.782Z,32.24
2022-08-26T07:59:35.888Z,32.24
2022-08-26T08:00:35.988Z,32.72
2022-08-26T08:01:36.183Z,33.92
2022-08-26T08:02:36.254Z,32.4
2022-08-26T08:03:36.347Z,31.84
2022-08-26T08:04:36.500Z,31.04
2022-08-26T08:05:36.557Z,30.88
2022-08-26T08:06:36.728Z,30
2022-08-26T08:07:38.813Z,31.04
2022-08-26T08:08:36.953Z,31.2
2022-08-26T08:09:37.051Z,31.84
2022-08-26T08:10:37.233Z,32.4
2022-08-26T08:11:37.311Z,32.32
2022-08-26T08:12:37.439Z,31.52
2022-08-26T08:13:37.562Z,30.64
2022-08-26T08:14:37.664Z,30.48
2022-08-26T08:15:37.762Z,30.72
2022-08-26T08:16:41.500Z,32
2022-08-26T08:17:38.017Z,33.28
2022-08-26T08:18:38.145Z,34.56
2022-08-26T08:19:39.151Z,33.28
2022-08-26T08:20:38.321Z,31.52
2022-08-26T08:21:38.430Z,31.92
2022-08-26T08:22:38.537Z,33.2
2022-08-26T08:23:38.676Z,32.32
2022-08-26T08:24:38.786Z,33.12
2022-08-26T08:25:38.896Z,32.24
2022-08-26T08:26:39.043Z,31.04
2022-08-26T08:27:39.146Z,33.04
2022-08-26T08:28:39.250Z,34.32
2022-08-26T08:29:39.394Z,33.92
2022-08-26T08:30:39.571Z,33.68
2022-08-26T08:31:56.363Z,32.88
2022-08-26T08:32:39.701Z,32.72
2022-08-26T08:33:39.851Z,32.32
2022-08-26T08:35:40.055Z,33.28
2022-08-26T08:36:40.152Z,34
2022-08-26T08:37:40.260Z,34.08
2022-08-26T08:38:40.364Z,34.32
2022-08-26T08:39:40.465Z,33.6
2022-08-26T08:40:40.571Z,34
2022-08-26T08:41:40.715Z,34
2022-08-26T08:42:40.905Z,33.28
2022-08-26T08:43:41.022Z,35.04
2022-08-26T08:44:41.670Z,35.12
2022-08-26T08:45:41.305Z,35.6
2022-08-26T08:46:41.429Z,35.44
2022-08-26T08:47:41.586Z,34.56
2022-08-26T08:48:41.693Z,34.48
2022-08-26T08:49:41.828Z,35.28
2022-08-26T08:50:41.980Z,32.4
2022-08-26T08:51:42.133Z,33.12
2022-08-26T08:52:42.240Z,32.72
2022-08-26T08:53:43.229Z,34.24
2022-08-26T08:54:42.540Z,34.24
2022-08-26T08:55:42.695Z,35.6
2022-08-26T08:56:42.794Z,32.8
2022-08-26T08:57:42.947Z,32.72
2022-08-26T08:58:43.048Z,35.12
2022-08-26T08:59:43.158Z,35.92
2022-08-26T09:00:43.302Z,35.6
2022-08-26T09:01:43.491Z,35.92
2022-08-26T09:02:43.572Z,35.68
2022-08-26T09:03:43.710Z,36.08
2022-08-26T09:04:43.857Z,34.72
2022-08-26T09:05:48.159Z,34.32
2022-08-26T09:06:44.120Z,35.04
2022-08-26T09:07:44.217Z,36
2022-08-26T09:08:44.371Z,37.6
2022-08-26T09:09:44.471Z,38.56
2022-08-26T09:10:44.626Z,36.24
2022-08-26T09:11:44.727Z,33.44
2022-08-26T09:12:44.830Z,33.04
2022-08-26T09:13:44.930Z,31.2
2022-08-26T09:14:45.042Z,31.44
2022-08-26T09:15:45.180Z,34.08
2022-08-26T09:16:45.361Z,34.88
2022-08-26T09:17:45.431Z,34.8
2022-08-26T09:18:45.959Z,33.28
2022-08-26T09:19:45.697Z,32.32
2022-08-26T09:20:45.860Z,32.32
2022-08-26T09:21:45.946Z,33.28
2022-08-26T09:22:46.098Z,33.6
2022-08-26T09:23:49.445Z,34
2022-08-26T09:24:48.192Z,32.48
2022-08-26T09:25:46.413Z,32.56
2022-08-26T09:26:47.361Z,33.28
2022-08-26T09:27:46.658Z,33.04
2022-08-26T09:28:46.806Z,30.24
2022-08-26T09:29:50.343Z,29.84
2022-08-26T09:30:47.071Z,30.4
2022-08-26T09:31:47.110Z,31.28
2022-08-26T09:32:55.862Z,31.44
2022-08-26T09:33:47.379Z,33.84
2022-08-26T09:34:47.525Z,35.44
2022-08-26T09:35:47.624Z,36.08
2022-08-26T09:36:47.724Z,36
2022-08-26T09:38:47.928Z,38.24
2022-08-26T09:39:48.102Z,37.84
2022-08-26T09:40:48.179Z,38.48
2022-08-26T09:41:48.335Z,39.6
2022-08-26T09:42:48.445Z,37.92
2022-08-26T09:43:48.542Z,39.28
2022-08-26T09:44:48.690Z,37.28
2022-08-26T09:45:50.588Z,32.8
2022-08-26T09:46:48.900Z,33.04
2022-08-26T09:47:49.006Z,33.44
2022-08-26T09:48:51.732Z,33.68
2022-08-26T09:49:49.299Z,32.48
2022-08-26T09:50:49.450Z,33.2
2022-08-26T09:51:50.057Z,33.12
2022-08-26T09:52:49.704Z,32.24
2022-08-26T09:53:49.807Z,31.6
2022-08-26T09:54:49.908Z,31.92
2022-08-26T09:55:50.011Z,33.04
2022-08-26T09:56:50.120Z,33.04
2022-08-26T09:57:50.261Z,32
2022-08-26T09:58:50.419Z,30.88
2022-08-26T09:59:50.519Z,31.2
2022-08-26T10:00:50.654Z,32.88
2022-08-26T10:01:50.872Z,34
2022-08-26T10:02:51.850Z,34.4
2022-08-26T10:03:51.064Z,34
2022-08-26T10:04:51.133Z,33.6
2022-08-26T10:05:51.228Z,32.56
2022-08-26T10:06:51.334Z,31.28
2022-08-26T10:07:51.486Z,30.88
2022-08-26T10:08:51.607Z,29.92
2022-08-26T10:09:51.754Z,29.52
2022-08-26T10:10:53.014Z,28.72
2022-08-26T10:11:51.945Z,28.32
2022-08-26T10:12:52.044Z,28.4
2022-08-26T10:13:52.152Z,27.68
2022-08-26T10:14:52.249Z,27.28
2022-08-26T10:15:52.354Z,27.04
2022-08-26T10:16:52.489Z,26.32
2022-08-26T10:17:52.553Z,26.24
2022-08-26T10:18:55.717Z,26.4
2022-08-26T10:19:56.342Z,26.4
2022-08-26T10:20:52.909Z,26.64
2022-08-26T10:21:53.067Z,26.64
2022-08-26T10:22:53.163Z,26.08
2022-08-26T10:23:53.669Z,25.84
2022-08-26T10:24:55.233Z,25.52
2022-08-26T10:25:53.526Z,24.88
2022-08-26T10:26:53.677Z,24.48
2022-08-26T10:27:53.868Z,24.48
2022-08-26T10:28:53.926Z,24.32
2022-08-26T10:29:54.029Z,23.92
2022-08-26T10:30:54.130Z,23.6
2022-08-26T10:31:54.254Z,23.28
2022-08-26T10:32:54.332Z,22.72
2022-08-26T10:33:58.082Z,22.72
2022-08-26T10:34:54.534Z,22.72
2022-08-26T10:35:54.687Z,22.24
2022-08-26T10:37:10.889Z,22.24
2022-08-26T10:37:54.941Z,22.08
2022-08-26T10:38:55.091Z,22
2022-08-26T10:39:57.058Z,22
2022-08-26T10:40:55.384Z,22
2022-08-26T10:41:55.451Z,21.84
2022-08-26T10:42:55.553Z,21.6
2022-08-26T10:43:55.652Z,20.48
2022-08-26T10:44:56.330Z,19.92
2022-08-26T10:45:55.962Z,19.68
2022-08-26T10:46:56.029Z,19.6
2022-08-26T10:47:56.175Z,19.52
2022-08-26T10:48:56.315Z,19.44
2022-08-26T10:50:00.083Z,19.28
2022-08-26T10:50:56.578Z,19.04
2022-08-26T10:51:56.674Z,19.12
2022-08-26T10:52:56.776Z,19.28
2022-08-26T10:53:56.873Z,19.28
2022-08-26T10:54:56.977Z,19.92
2022-08-26T10:55:57.080Z,20.32
2022-08-26T10:56:57.181Z,20.08
2022-08-26T10:57:57.282Z,19.92
2022-08-26T10:58:57.383Z,19.92
2022-08-26T10:59:57.537Z,19.92
2022-08-26T11:00:57.655Z,20.08
2022-08-26T11:01:57.739Z,20
2022-08-26T11:02:57.841Z,20
2022-08-26T11:03:58.196Z,19.92
2022-08-26T11:04:58.097Z,19.76
2022-08-26T11:05:58.195Z,19.92
2022-08-26T11:06:58.376Z,20
2022-08-26T11:07:58.453Z,20
2022-08-26T11:08:58.554Z,19.92
2022-08-26T11:09:58.657Z,19.92
2022-08-26T11:10:58.975Z,19.92
2022-08-26T11:11:58.911Z,20
2022-08-26T11:12:59.028Z,20
2022-08-26T11:13:59.120Z,20
2022-08-26T11:14:59.400Z,19.92
2022-08-26T11:15:59.366Z,19.92
2022-08-26T11:16:59.570Z,19.92
2022-08-26T11:18:00.241Z,19.92
2022-08-26T11:18:59.724Z,19.76
2022-08-26T11:20:01.319Z,19.68
2022-08-26T11:20:59.928Z,19.52
2022-08-26T11:22:00.092Z,19.52
2022-08-26T11:23:00.179Z,19.6
2022-08-26T11:24:00.337Z,19.52
2022-08-26T11:25:00.434Z,19.52
2022-08-26T11:26:00.567Z,19.44
2022-08-26T11:27:00.686Z,19.44
2022-08-26T11:28:00.922Z,19.52
2022-08-26T11:29:00.942Z,19.52
2022-08-26T11:30:01.048Z,19.44
2022-08-26T11:31:01.154Z,19.28
2022-08-26T11:32:01.288Z,19.44
2022-08-26T11:33:01.360Z,19.44
2022-08-26T11:34:01.459Z,19.52
2022-08-26T11:35:01.638Z,19.52
2022-08-26T11:36:01.706Z,19.6
2022-08-26T11:37:01.810Z,19.52
2022-08-26T11:38:01.957Z,19.6
2022-08-26T11:39:02.746Z,19.76
2022-08-26T11:40:02.794Z,19.6
2022-08-26T11:41:03.331Z,19.6
2022-08-26T11:42:02.547Z,19.68
2022-08-26T11:43:02.618Z,19.68
2022-08-26T11:44:02.724Z,19.92
2022-08-26T11:45:05.601Z,20
2022-08-26T11:46:03.000Z,20.24
2022-08-26T11:47:03.034Z,20.08
2022-08-26T11:48:03.131Z,20.24
2022-08-26T11:49:03.233Z,20.32
2022-08-26T11:50:03.337Z,20.24
2022-08-26T11:51:03.497Z,20.24
2022-08-26T11:52:03.593Z,20.08
2022-08-26T11:53:03.742Z,20.24
2022-08-26T11:54:03.849Z,20.08
2022-08-26T11:55:03.997Z,20.24
2022-08-26T11:56:04.100Z,20.24
2022-08-26T11:57:07.412Z,20.4
2022-08-26T11:58:04.647Z,20.4
2022-08-26T11:59:04.400Z,20.64
2022-08-26T12:00:05.175Z,20.72
2022-08-26T12:01:04.655Z,20.8
2022-08-26T12:02:04.760Z,20.8
2022-08-26T12:03:04.911Z,20.88
2022-08-26T12:04:05.013Z,20.88
2022-08-26T12:05:05.059Z,20.88
2022-08-26T12:06:05.166Z,20.88
2022-08-26T12:07:05.274Z,20.88
2022-08-26T12:08:05.377Z,20.88
2022-08-26T12:09:05.524Z,21.2
2022-08-26T12:10:05.806Z,21.44
2022-08-26T12:11:05.772Z,21.28
2022-08-26T12:12:05.877Z,21.52
2022-08-26T12:13:05.984Z,21.6
2022-08-26T12:14:07.172Z,21.92
2022-08-26T12:15:06.239Z,21.92
2022-08-26T12:16:06.489Z,21.92
2022-08-26T12:17:06.494Z,22.08
2022-08-26T12:18:06.591Z,22.32
2022-08-26T12:19:06.742Z,22.48
2022-08-26T12:20:06.847Z,22.32
2022-08-26T12:21:06.946Z,22.48
2022-08-26T12:22:07.096Z,22.4
2022-08-26T12:23:07.202Z,22.48
2022-08-26T12:24:07.300Z,22.72
2022-08-26T12:25:07.406Z,22.48
2022-08-26T12:26:07.506Z,22.4
2022-08-26T12:27:07.653Z,22.72
2022-08-26T12:28:07.858Z,23.04
2022-08-26T12:29:10.056Z,23.44
2022-08-26T12:30:08.280Z,23.6
2022-08-26T12:31:08.064Z,23.6
2022-08-26T12:32:08.181Z,23.44
2022-08-26T12:33:21.855Z,23.6
2022-08-26T12:34:17.387Z,23.04
2022-08-26T12:35:08.499Z,22.88
2022-08-26T12:36:08.630Z,23.04
2022-08-26T12:37:08.795Z,23.04
2022-08-26T12:38:09.009Z,22.8
2022-08-26T12:39:08.986Z,23.12
2022-08-26T12:40:09.206Z,23.04
2022-08-26T12:41:09.326Z,22.88
2022-08-26T12:42:09.446Z,22.8
2022-08-26T12:43:09.597Z,22.64
2022-08-26T12:44:09.700Z,22.8
2022-08-26T12:45:09.850Z,22.8
2022-08-26T12:46:09.950Z,22.88
2022-08-26T12:47:10.113Z,23.04
2022-08-26T12:48:10.406Z,23.04
2022-08-26T12:49:10.360Z,22.88
2022-08-26T12:50:10.509Z,23.04
2022-08-26T12:51:10.621Z,23.04
2022-08-26T12:52:10.763Z,23.12
2022-08-26T12:53:10.863Z,23.12
2022-08-26T12:54:10.967Z,23.04
2022-08-26T12:55:11.073Z,22.88
2022-08-26T12:56:11.196Z,23.12
2022-08-26T12:57:11.338Z,22.88
2022-08-26T12:58:11.491Z,23.04
2022-08-26T12:59:12.308Z,22.88
2022-08-26T13:00:11.734Z,22.88
2022-08-26T13:01:11.911Z,22.72
2022-08-26T13:02:12.128Z,22.72
2022-08-26T13:03:12.184Z,22.72
2022-08-26T13:04:12.337Z,22.72